createdAt,value
2017-11-10T00:01:04.254Z,1023.2
2017-11-10T00:06:05.093Z,1023.1
2017-11-10T00:11:04.237Z,1023.1
2017-11-10T00:16:05.010Z,1022.8
2017-11-10T00:21:07.877Z,1022.8
2017-11-10T00:26:05.069Z,1022.8
2017-11-10T00:31:04.842Z,1022.8
2017-11-10T00:36:04.620Z,1023
2017-11-10T00:41:04.829Z,1022.9
2017-11-10T00:46:04.744Z,1022.9
2017-11-10T00:51:04.802Z,1023
2017-11-10T00:56:04.294Z,1023.2
2017-11-10T01:01:04.929Z,1023
2017-11-10T01:06:04.707Z,1022.7
2017-11-10T01:11:07.693Z,1022.3
2017-11-10T01:16:05.121Z,1022.2
2017-11-10T01:21:04.759Z,1022.1
2017-11-10T01:26:04.525Z,1022.1
2017-11-10T01:31:04.232Z,1022.1
2017-11-10T01:36:05.059Z,1022.4
2017-11-10T01:41:04.177Z,1022.2
2017-11-10T01:46:04.944Z,1022.3
2017-11-10T01:51:04.724Z,1022.2
2017-11-10T01:56:04.452Z,1022.1
2017-11-10T02:01:05.139Z,1022
2017-11-10T02:06:04.878Z,1021.8
2017-11-10T02:11:05.074Z,1021.7
2017-11-10T02:16:04.882Z,1021.7
2017-11-10T02:21:04.734Z,1021.4
2017-11-10T02:26:04.509Z,1021.4
2017-11-10T02:31:04.229Z,1021.5
2017-11-10T02:36:05.005Z,1021.5
2017-11-10T02:41:05.135Z,1021.5
2017-11-10T02:46:04.898Z,1021.3
2017-11-10T02:51:04.698Z,1021.3
2017-11-10T02:56:04.452Z,1021.2
2017-11-10T03:01:05.136Z,1021.1
2017-11-10T03:06:04.913Z,1021.1
2017-11-10T03:11:05.112Z,1021
2017-11-10T03:16:04.921Z,1020.9
2017-11-10T03:21:04.676Z,1020.7
2017-11-10T03:26:04.438Z,1020.7
2017-11-10T03:31:04.188Z,1020.6
2017-11-10T03:36:04.941Z,1020.5
2017-11-10T03:41:05.083Z,1020.4
2017-11-10T03:46:04.834Z,1020.4
2017-11-10T03:51:04.619Z,1020.2
2017-11-10T03:56:04.405Z,1020.3
2017-11-10T04:01:04.148Z,1020.3
2017-11-10T04:06:04.950Z,1020.2
2017-11-10T04:11:05.168Z,1020.2
2017-11-10T04:16:04.912Z,1020.1
2017-11-10T04:21:04.736Z,1020.1
2017-11-10T04:26:04.498Z,1019.9
2017-11-10T04:31:04.291Z,1019.9
2017-11-10T04:36:04.996Z,1019.8
2017-11-10T04:41:04.178Z,1019.6
2017-11-10T04:46:04.997Z,1019.8
2017-11-10T04:51:04.795Z,1019.9
2017-11-10T04:56:04.577Z,1019.8
2017-11-10T05:01:04.321Z,1019.8
2017-11-10T05:06:05.185Z,1019.7
2017-11-10T05:11:04.269Z,1019.5
2017-11-10T05:16:05.050Z,1019.5
2017-11-10T05:21:04.881Z,1019.4
2017-11-10T05:26:04.579Z,1019.3
2017-11-10T05:31:04.484Z,1019.2
2017-11-10T05:36:04.219Z,1019
2017-11-10T05:41:04.426Z,1019.1
2017-11-10T05:46:05.132Z,1019
2017-11-10T05:51:04.952Z,1018.8
2017-11-10T05:56:04.718Z,1018.8
2017-11-10T06:01:04.622Z,1018.8
2017-11-10T06:06:04.409Z,1018.8
2017-11-10T06:11:04.585Z,1018.9
2017-11-10T06:16:04.345Z,1018.7
2017-11-10T06:21:04.253Z,1018.7
2017-11-10T06:26:05.041Z,1018.6
2017-11-10T06:31:04.826Z,1018.7
2017-11-10T06:36:04.633Z,1018.6
2017-11-10T06:41:04.836Z,1018.6
2017-11-10T06:46:04.578Z,1018.5
2017-11-10T06:51:04.311Z,1018.5
2017-11-10T06:56:05.025Z,1018.5
2017-11-10T07:01:04.852Z,1018.4
2017-11-10T07:06:04.647Z,1018.4
2017-11-10T07:11:04.897Z,1018.4
2017-11-10T07:16:04.642Z,1018.3
2017-11-10T07:21:04.553Z,1018.3
2017-11-10T07:26:04.380Z,1018.3
2017-11-10T07:31:05.081Z,1018.3
2017-11-10T07:36:04.831Z,1018.2
2017-11-10T07:41:05.022Z,1018.1
2017-11-10T07:46:04.781Z,1018.1
2017-11-10T07:51:04.527Z,1018
2017-11-10T07:56:04.306Z,1018
2017-11-10T08:01:05.141Z,1017.8
2017-11-10T08:06:04.892Z,1017.7
2017-11-10T08:11:05.078Z,1017.6
2017-11-10T08:16:04.866Z,1017.6
2017-11-10T08:21:04.783Z,1017.5
2017-11-10T08:26:04.565Z,1017.6
2017-11-10T08:31:04.277Z,1017.5
2017-11-10T08:36:05.117Z,1017.5
2017-11-10T08:41:04.280Z,1017.5
2017-11-10T08:46:05.100Z,1017.4
2017-11-10T08:51:04.831Z,1017.3
2017-11-10T08:56:04.591Z,1017.3
2017-11-10T09:01:04.361Z,1017.2
2017-11-10T09:06:05.154Z,1017.1
2017-11-10T09:11:04.420Z,1017
2017-11-10T09:16:05.236Z,1017
2017-11-10T09:21:06.206Z,1016.9
2017-11-10T09:26:04.934Z,1016.9
2017-11-10T09:31:04.720Z,1016.8
2017-11-10T09:36:04.473Z,1016.8
2017-11-10T09:41:05.208Z,1016.8
2017-11-10T09:46:04.843Z,1016.8
2017-11-10T09:51:04.636Z,1016.6
2017-11-10T09:56:04.416Z,1016.6
2017-11-10T10:01:04.275Z,1016.5
2017-11-10T10:06:05.464Z,1016.6
2017-11-10T10:11:04.669Z,1016.6
2017-11-10T10:16:04.495Z,1016.6
2017-11-10T10:21:04.946Z,1016.1
2017-11-10T10:26:04.573Z,1016
2017-11-10T10:31:04.465Z,1015.9
2017-11-10T10:36:04.342Z,1015.8
2017-11-10T10:41:04.503Z,1015.6
2017-11-10T10:46:04.987Z,1015.5
2017-11-10T10:51:04.985Z,1015.4
2017-11-10T10:56:04.769Z,1015.4
2017-11-10T11:01:04.479Z,1015.3
2017-11-10T11:06:04.237Z,1015.2
2017-11-10T11:11:04.389Z,1015.1
2017-11-10T11:16:05.215Z,1015
2017-11-10T11:21:04.391Z,1014.9
2017-11-10T11:26:05.523Z,1014.8
2017-11-10T11:31:04.920Z,1014.6
2017-11-10T11:36:04.618Z,1014.7
2017-11-10T11:41:04.918Z,1014.5
2017-11-10T11:46:04.372Z,1014.5
2017-11-10T11:51:05.184Z,1014.3
2017-11-10T11:56:04.934Z,1014.2
2017-11-10T12:01:04.794Z,1014.2
2017-11-10T12:06:04.614Z,1014.1
2017-11-10T12:11:05.398Z,1014.1
2017-11-10T12:16:04.897Z,1013.9
2017-11-10T12:21:04.757Z,1013.9
2017-11-10T12:26:04.585Z,1013.8
2017-11-10T12:31:04.351Z,1013.8
2017-11-10T12:36:05.079Z,1013.8
2017-11-10T12:41:04.270Z,1013.8
2017-11-10T12:46:05.074Z,1013.8
2017-11-10T12:51:04.815Z,1013.8
2017-11-10T12:56:04.744Z,1013.9
2017-11-10T13:01:04.379Z,1013.8
2017-11-10T13:06:04.237Z,1013.8
2017-11-10T13:11:04.442Z,1013.8
2017-11-10T13:16:05.486Z,1013.7
2017-11-10T13:21:05.312Z,1013.7
2017-11-10T13:26:05.434Z,1013.7
2017-11-10T13:31:04.723Z,1013.7
2017-11-10T13:36:04.733Z,1013.8
2017-11-10T13:41:04.595Z,1013.7
2017-11-10T13:46:04.326Z,1013.7
2017-11-10T13:51:05.113Z,1013.6
2017-11-10T13:56:04.817Z,1013.5
2017-11-10T14:01:04.654Z,1013.5
2017-11-10T14:06:04.475Z,1013.6
2017-11-10T14:11:04.857Z,1013.8
2017-11-10T14:16:04.465Z,1014
2017-11-10T14:21:04.312Z,1014
2017-11-10T14:26:05.120Z,1014
2017-11-10T14:31:04.914Z,1014.1
2017-11-10T14:36:04.733Z,1014.2
2017-11-10T14:41:04.914Z,1014.2
2017-11-10T14:46:04.713Z,1014.2
2017-11-10T14:51:04.537Z,1014.2
2017-11-10T14:56:04.351Z,1014.4
2017-11-10T15:01:05.202Z,1014.4
2017-11-10T15:06:04.931Z,1014.5
2017-11-10T15:11:05.111Z,1014.6
2017-11-10T15:16:04.839Z,1014.6
2017-11-10T15:21:04.625Z,1014.7
2017-11-10T15:26:04.516Z,1014.7
2017-11-10T15:31:04.307Z,1014.8
2017-11-10T15:36:05.083Z,1014.9
2017-11-10T15:41:04.232Z,1015.1
2017-11-10T15:46:05.054Z,1015.2
2017-11-10T15:51:04.786Z,1015.2
2017-11-10T15:56:04.690Z,1015.5
2017-11-10T16:01:04.410Z,1015.8
2017-11-10T16:06:05.152Z,1015.9
2017-11-10T16:11:04.560Z,1016
2017-11-10T16:16:04.312Z,1016
2017-11-10T16:21:05.638Z,1016.1
2017-11-10T16:26:04.302Z,1016.1
2017-11-10T16:31:05.100Z,1016.1
2017-11-10T16:36:04.840Z,1016.1
2017-11-10T16:41:05.041Z,1016
2017-11-10T16:46:04.863Z,1016.4
2017-11-10T16:51:04.738Z,1016.4
2017-11-10T16:56:04.453Z,1016.3
2017-11-10T17:01:04.238Z,1016.4
2017-11-10T17:06:05.058Z,1016.5
2017-11-10T17:11:04.254Z,1016.6
2017-11-10T17:16:05.126Z,1016.6
2017-11-10T17:21:05.009Z,1016.7
2017-11-10T17:26:05.399Z,1016.7
2017-11-10T17:31:04.571Z,1016.7
2017-11-10T17:36:04.400Z,1016.8
2017-11-10T17:41:04.604Z,1016.9
2017-11-10T17:46:04.403Z,1016.9
2017-11-10T17:51:05.135Z,1016.9
2017-11-10T17:56:04.941Z,1016.9
2017-11-10T18:01:04.768Z,1016.9
2017-11-10T18:06:04.538Z,1017
2017-11-10T18:11:04.753Z,1017
2017-11-10T18:16:04.494Z,1017.1
2017-11-10T18:21:04.366Z,1017.2
2017-11-10T18:26:05.066Z,1017.3
2017-11-10T18:31:04.856Z,1017.3
2017-11-10T18:36:04.657Z,1017.4
2017-11-10T18:41:04.819Z,1017.3
2017-11-10T18:46:04.638Z,1017.3
2017-11-10T18:51:04.499Z,1017.3
2017-11-10T18:56:04.244Z,1017.3
2017-11-10T19:01:05.082Z,1017.3
2017-11-10T19:06:05.377Z,1017.2
2017-11-10T19:11:05.053Z,1017.4
2017-11-10T19:16:04.885Z,1017.2
2017-11-10T19:21:04.982Z,1017.3
2017-11-10T19:26:04.983Z,1017.3
2017-11-10T19:31:06.505Z,1017.4
2017-11-10T19:36:06.557Z,1017.3
2017-11-10T19:41:04.799Z,1017.4
2017-11-10T19:46:06.182Z,1017.4
2017-11-10T19:51:04.737Z,1017.5
2017-11-10T19:56:06.366Z,1017.5
2017-11-10T20:01:06.458Z,1017.6
2017-11-10T20:06:05.154Z,1017.5
2017-11-10T20:11:06.718Z,1017.5
2017-11-10T20:16:06.713Z,1017.5
2017-11-10T20:21:05.770Z,1017.5
2017-11-10T20:26:07.439Z,1017.7
2017-11-10T20:31:07.434Z,1017.7
2017-11-10T20:36:06.880Z,1017.6
2017-11-10T20:41:07.627Z,1017.5
2017-11-10T20:46:07.327Z,1017.5
2017-11-10T20:51:07.085Z,1017.6
2017-11-10T20:56:08.135Z,1017.6
2017-11-10T21:01:08.625Z,1017.6
2017-11-10T21:06:07.856Z,1017.6
2017-11-10T21:11:07.021Z,1017.6
2017-11-10T21:16:05.218Z,1017.5
2017-11-10T21:21:05.526Z,1017.5
2017-11-10T21:26:05.956Z,1017.5
2017-11-10T21:31:06.021Z,1017.5
2017-11-10T21:36:05.976Z,1017.4
2017-11-10T21:41:06.935Z,1017.4
2017-11-10T21:46:04.674Z,1017.4
2017-11-10T21:51:04.592Z,1017.4
2017-11-10T21:56:05.205Z,1017.3
2017-11-10T22:01:05.437Z,1017.3
2017-11-10T22:06:04.890Z,1017.4
2017-11-10T22:11:05.133Z,1017.4
2017-11-10T22:16:04.954Z,1017.3
2017-11-10T22:21:05.306Z,1017.4
2017-11-10T22:26:05.102Z,1017.4
2017-11-10T22:31:04.981Z,1017.3
2017-11-10T22:36:05.129Z,1017.3
2017-11-10T22:41:05.263Z,1017.1
2017-11-10T22:46:05.002Z,1017.1
2017-11-10T22:51:04.890Z,1017.2
2017-11-10T22:56:04.761Z,1017.3
2017-11-10T23:01:04.617Z,1017.6
2017-11-10T23:06:04.478Z,1017.5
2017-11-10T23:11:04.797Z,1017.5
2017-11-10T23:16:04.642Z,1017.4
2017-11-10T23:21:04.538Z,1017.4
2017-11-10T23:26:04.330Z,1017.3
2017-11-10T23:31:05.082Z,1017.2
2017-11-10T23:36:05.018Z,1017.2
2017-11-10T23:41:05.142Z,1017.1
2017-11-10T23:46:04.991Z,1017.1
2017-11-10T23:51:04.743Z,1017.1
2017-11-10T23:56:04.591Z,1017
